sensor_id;sensor_type;location;lat;lon;timestamp;P1;durP1;ratioP1;P2;durP2;ratioP2
6344;SDS011;3205;42.666;23.264;2022-10-22T00:01:00;25.17;;;16.77;;
6344;SDS011;3205;42.666;23.264;2022-10-22T00:03:27;27.23;;;15.97;;
6344;SDS011;3205;42.666;23.264;2022-10-22T00:05:54;30.63;;;16.17;;
6344;SDS011;3205;42.666;23.264;2022-10-22T00:08:22;29.00;;;16.80;;
6344;SDS011;3205;42.666;23.264;2022-10-22T00:10:49;29.57;;;16.43;;
6344;SDS011;3205;42.666;23.264;2022-10-22T00:13:17;27.53;;;15.87;;
6344;SDS011;3205;42.666;23.264;2022-10-22T00:15:44;24.63;;;16.83;;
6344;SDS011;3205;42.666;23.264;2022-10-22T00:18:10;30.30;;;16.30;;
6344;SDS011;3205;42.666;23.264;2022-10-22T00:20:37;26.10;;;15.57;;
6344;SDS011;3205;42.666;23.264;2022-10-22T00:23:04;28.57;;;16.97;;
6344;SDS011;3205;42.666;23.264;2022-10-22T00:25:34;27.83;;;16.20;;
6344;SDS011;3205;42.666;23.264;2022-10-22T00:28:01;26.60;;;15.57;;
6344;SDS011;3205;42.666;23.264;2022-10-22T00:30:29;26.37;;;16.23;;
6344;SDS011;3205;42.666;23.264;2022-10-22T00:32:56;27.97;;;16.63;;
6344;SDS011;3205;42.666;23.264;2022-10-22T00:35:22;30.37;;;18.03;;
6344;SDS011;3205;42.666;23.264;2022-10-22T00:37:49;26.43;;;17.13;;
6344;SDS011;3205;42.666;23.264;2022-10-22T00:40:16;28.83;;;17.10;;
6344;SDS011;3205;42.666;23.264;2022-10-22T00:42:44;28.50;;;17.43;;
6344;SDS011;3205;42.666;23.264;2022-10-22T00:45:19;29.93;;;17.77;;
6344;SDS011;3205;42.666;23.264;2022-10-22T00:47:49;30.90;;;17.97;;
6344;SDS011;3205;42.666;23.264;2022-10-22T00:50:21;29.77;;;19.80;;
6344;SDS011;3205;42.666;23.264;2022-10-22T00:52:51;33.00;;;19.23;;
6344;SDS011;3205;42.666;23.264;2022-10-22T00:55:20;28.10;;;17.73;;
6344;SDS011;3205;42.666;23.264;2022-10-22T00:57:50;31.60;;;17.70;;
6344;SDS011;3205;42.666;23.264;2022-10-22T01:00:19;31.50;;;18.47;;
6344;SDS011;3205;42.666;23.264;2022-10-22T01:02:46;28.33;;;17.47;;
6344;SDS011;3205;42.666;23.264;2022-10-22T01:05:15;30.47;;;18.10;;
6344;SDS011;3205;42.666;23.264;2022-10-22T01:07:43;32.97;;;18.30;;
6344;SDS011;3205;42.666;23.264;2022-10-22T01:10:16;27.77;;;17.87;;
6344;SDS011;3205;42.666;23.264;2022-10-22T01:12:53;33.17;;;18.23;;
6344;SDS011;3205;42.666;23.264;2022-10-22T01:15:28;28.37;;;17.63;;
6344;SDS011;3205;42.666;23.264;2022-10-22T01:18:04;33.30;;;19.60;;
6344;SDS011;3205;42.666;23.264;2022-10-22T01:20:39;29.50;;;18.30;;
6344;SDS011;3205;42.666;23.264;2022-10-22T01:23:21;30.73;;;17.23;;
6344;SDS011;3205;42.666;23.264;2022-10-22T01:26:11;27.67;;;18.43;;
6344;SDS011;3205;42.666;23.264;2022-10-22T01:28:51;28.97;;;17.27;;
6344;SDS011;3205;42.666;23.264;2022-10-22T01:31:24;27.87;;;17.50;;
6344;SDS011;3205;42.666;23.264;2022-10-22T01:33:55;28.63;;;16.50;;
6344;SDS011;3205;42.666;23.264;2022-10-22T01:36:24;34.23;;;17.33;;
6344;SDS011;3205;42.666;23.264;2022-10-22T01:38:52;29.67;;;16.30;;
6344;SDS011;3205;42.666;23.264;2022-10-22T01:41:21;28.20;;;16.80;;
6344;SDS011;3205;42.666;23.264;2022-10-22T01:43:49;24.67;;;16.27;;
6344;SDS011;3205;42.666;23.264;2022-10-22T01:46:16;40.47;;;17.97;;
6344;SDS011;3205;42.666;23.264;2022-10-22T01:48:47;34.10;;;17.53;;
6344;SDS011;3205;42.666;23.264;2022-10-22T01:51:23;30.63;;;17.90;;
6344;SDS011;3205;42.666;23.264;2022-10-22T01:54:00;30.37;;;17.63;;
6344;SDS011;3205;42.666;23.264;2022-10-22T01:56:37;34.43;;;17.67;;
6344;SDS011;3205;42.666;23.264;2022-10-22T01:59:19;30.67;;;17.77;;
6344;SDS011;3205;42.666;23.264;2022-10-22T02:01:55;36.97;;;17.73;;
6344;SDS011;3205;42.666;23.264;2022-10-22T02:04:31;32.37;;;19.37;;
6344;SDS011;3205;42.666;23.264;2022-10-22T02:07:03;41.13;;;18.30;;
6344;SDS011;3205;42.666;23.264;2022-10-22T02:09:33;38.70;;;18.37;;
6344;SDS011;3205;42.666;23.264;2022-10-22T02:12:02;39.47;;;19.17;;
6344;SDS011;3205;42.666;23.264;2022-10-22T02:14:33;33.17;;;17.57;;
6344;SDS011;3205;42.666;23.264;2022-10-22T02:17:03;32.77;;;19.00;;
6344;SDS011;3205;42.666;23.264;2022-10-22T02:19:34;36.43;;;20.20;;
6344;SDS011;3205;42.666;23.264;2022-10-22T02:22:06;37.10;;;18.87;;
6344;SDS011;3205;42.666;23.264;2022-10-22T02:24:33;36.83;;;20.07;;
6344;SDS011;3205;42.666;23.264;2022-10-22T02:27:02;42.63;;;19.90;;
6344;SDS011;3205;42.666;23.264;2022-10-22T02:29:36;30.20;;;18.27;;
6344;SDS011;3205;42.666;23.264;2022-10-22T02:32:07;33.83;;;19.23;;
6344;SDS011;3205;42.666;23.264;2022-10-22T02:34:37;27.97;;;17.53;;
6344;SDS011;3205;42.666;23.264;2022-10-22T02:37:04;34.03;;;18.80;;
6344;SDS011;3205;42.666;23.264;2022-10-22T02:39:31;36.07;;;19.67;;
6344;SDS011;3205;42.666;23.264;2022-10-22T02:41:59;32.20;;;18.83;;
6344;SDS011;3205;42.666;23.264;2022-10-22T02:44:27;32.40;;;19.03;;
6344;SDS011;3205;42.666;23.264;2022-10-22T02:46:55;32.13;;;18.63;;
6344;SDS011;3205;42.666;23.264;2022-10-22T02:49:22;34.23;;;18.23;;
6344;SDS011;3205;42.666;23.264;2022-10-22T02:51:49;27.70;;;17.67;;
6344;SDS011;3205;42.666;23.264;2022-10-22T02:54:16;34.23;;;19.23;;
6344;SDS011;3205;42.666;23.264;2022-10-22T02:56:43;34.73;;;19.67;;
6344;SDS011;3205;42.666;23.264;2022-10-22T02:59:10;35.00;;;19.27;;
6344;SDS011;3205;42.666;23.264;2022-10-22T03:01:36;34.70;;;19.57;;
6344;SDS011;3205;42.666;23.264;2022-10-22T03:04:05;32.53;;;17.57;;
6344;SDS011;3205;42.666;23.264;2022-10-22T03:06:31;30.90;;;18.73;;
6344;SDS011;3205;42.666;23.264;2022-10-22T03:08:58;34.40;;;18.87;;
6344;SDS011;3205;42.666;23.264;2022-10-22T03:11:25;29.07;;;18.33;;
6344;SDS011;3205;42.666;23.264;2022-10-22T03:13:52;32.43;;;18.17;;
6344;SDS011;3205;42.666;23.264;2022-10-22T03:16:19;32.97;;;18.23;;
6344;SDS011;3205;42.666;23.264;2022-10-22T03:18:46;33.07;;;19.30;;
6344;SDS011;3205;42.666;23.264;2022-10-22T03:21:16;34.17;;;18.77;;
6344;SDS011;3205;42.666;23.264;2022-10-22T03:23:51;42.03;;;18.33;;
6344;SDS011;3205;42.666;23.264;2022-10-22T03:26:19;32.23;;;19.97;;
6344;SDS011;3205;42.666;23.264;2022-10-22T03:28:47;33.20;;;20.03;;
6344;SDS011;3205;42.666;23.264;2022-10-22T03:31:13;37.27;;;20.57;;
6344;SDS011;3205;42.666;23.264;2022-10-22T03:33:40;41.57;;;20.77;;
6344;SDS011;3205;42.666;23.264;2022-10-22T03:36:07;37.77;;;19.90;;
6344;SDS011;3205;42.666;23.264;2022-10-22T03:38:36;36.97;;;19.43;;
6344;SDS011;3205;42.666;23.264;2022-10-22T03:41:05;35.37;;;19.77;;
6344;SDS011;3205;42.666;23.264;2022-10-22T03:43:32;38.50;;;18.60;;
6344;SDS011;3205;42.666;23.264;2022-10-22T03:45:59;37.40;;;19.03;;
6344;SDS011;3205;42.666;23.264;2022-10-22T03:48:26;30.60;;;18.57;;
6344;SDS011;3205;42.666;23.264;2022-10-22T03:50:53;35.63;;;18.87;;
6344;SDS011;3205;42.666;23.264;2022-10-22T03:53:20;36.87;;;19.30;;
6344;SDS011;3205;42.666;23.264;2022-10-22T03:55:48;33.93;;;18.33;;
6344;SDS011;3205;42.666;23.264;2022-10-22T03:58:16;31.97;;;18.20;;
6344;SDS011;3205;42.666;23.264;2022-10-22T04:00:43;33.07;;;17.83;;
6344;SDS011;3205;42.666;23.264;2022-10-22T04:03:09;34.93;;;18.07;;
6344;SDS011;3205;42.666;23.264;2022-10-22T04:05:36;36.23;;;19.27;;
6344;SDS011;3205;42.666;23.264;2022-10-22T04:08:03;34.27;;;19.03;;
6344;SDS011;3205;42.666;23.264;2022-10-22T04:10:30;45.33;;;19.97;;
6344;SDS011;3205;42.666;23.264;2022-10-22T04:12:58;31.10;;;18.13;;
6344;SDS011;3205;42.666;23.264;2022-10-22T04:15:25;41.00;;;18.23;;
6344;SDS011;3205;42.666;23.264;2022-10-22T04:17:53;32.67;;;18.13;;
6344;SDS011;3205;42.666;23.264;2022-10-22T04:20:20;42.47;;;19.93;;
6344;SDS011;3205;42.666;23.264;2022-10-22T04:22:47;40.33;;;23.00;;
6344;SDS011;3205;42.666;23.264;2022-10-22T04:25:14;46.83;;;22.47;;
6344;SDS011;3205;42.666;23.264;2022-10-22T04:27:41;38.60;;;18.77;;
6344;SDS011;3205;42.666;23.264;2022-10-22T04:30:09;37.13;;;19.07;;
6344;SDS011;3205;42.666;23.264;2022-10-22T04:32:37;34.10;;;20.07;;
6344;SDS011;3205;42.666;23.264;2022-10-22T04:35:04;47.47;;;20.13;;
6344;SDS011;3205;42.666;23.264;2022-10-22T04:37:31;34.90;;;19.67;;
6344;SDS011;3205;42.666;23.264;2022-10-22T04:39:58;36.13;;;19.50;;
6344;SDS011;3205;42.666;23.264;2022-10-22T04:42:25;36.47;;;20.20;;
6344;SDS011;3205;42.666;23.264;2022-10-22T04:44:52;47.43;;;20.43;;
6344;SDS011;3205;42.666;23.264;2022-10-22T04:47:20;33.30;;;20.53;;
6344;SDS011;3205;42.666;23.264;2022-10-22T04:49:47;33.93;;;19.07;;
6344;SDS011;3205;42.666;23.264;2022-10-22T04:52:13;37.63;;;20.07;;
6344;SDS011;3205;42.666;23.264;2022-10-22T04:54:40;36.50;;;21.07;;
6344;SDS011;3205;42.666;23.264;2022-10-22T04:57:07;35.77;;;20.37;;
6344;SDS011;3205;42.666;23.264;2022-10-22T04:59:34;34.43;;;20.03;;
6344;SDS011;3205;42.666;23.264;2022-10-22T05:02:01;31.03;;;18.93;;
6344;SDS011;3205;42.666;23.264;2022-10-22T05:04:29;37.67;;;20.77;;
6344;SDS011;3205;42.666;23.264;2022-10-22T05:06:56;39.27;;;20.13;;
6344;SDS011;3205;42.666;23.264;2022-10-22T05:09:22;46.20;;;22.77;;
6344;SDS011;3205;42.666;23.264;2022-10-22T05:11:50;36.00;;;19.87;;
6344;SDS011;3205;42.666;23.264;2022-10-22T05:14:19;37.40;;;21.00;;
6344;SDS011;3205;42.666;23.264;2022-10-22T05:16:46;40.90;;;21.77;;
6344;SDS011;3205;42.666;23.264;2022-10-22T05:19:15;37.97;;;21.67;;
6344;SDS011;3205;42.666;23.264;2022-10-22T05:21:45;45.97;;;21.93;;
6344;SDS011;3205;42.666;23.264;2022-10-22T05:24:12;42.07;;;20.63;;
6344;SDS011;3205;42.666;23.264;2022-10-22T05:26:38;45.93;;;22.53;;
6344;SDS011;3205;42.666;23.264;2022-10-22T05:29:05;46.07;;;23.23;;
6344;SDS011;3205;42.666;23.264;2022-10-22T05:31:32;38.10;;;22.47;;
6344;SDS011;3205;42.666;23.264;2022-10-22T05:33:59;54.93;;;28.17;;
6344;SDS011;3205;42.666;23.264;2022-10-22T05:36:26;41.60;;;23.87;;
6344;SDS011;3205;42.666;23.264;2022-10-22T05:38:55;52.33;;;23.57;;
6344;SDS011;3205;42.666;23.264;2022-10-22T05:41:23;56.33;;;24.73;;
6344;SDS011;3205;42.666;23.264;2022-10-22T05:43:53;56.30;;;24.53;;
6344;SDS011;3205;42.666;23.264;2022-10-22T05:46:21;82.93;;;26.17;;
6344;SDS011;3205;42.666;23.264;2022-10-22T05:48:49;55.60;;;24.57;;
6344;SDS011;3205;42.666;23.264;2022-10-22T05:51:16;48.67;;;22.70;;
6344;SDS011;3205;42.666;23.264;2022-10-22T05:53:43;54.17;;;24.70;;
6344;SDS011;3205;42.666;23.264;2022-10-22T05:56:13;83.20;;;42.10;;
6344;SDS011;3205;42.666;23.264;2022-10-22T05:58:41;77.43;;;36.50;;
6344;SDS011;3205;42.666;23.264;2022-10-22T06:01:10;52.47;;;26.17;;
6344;SDS011;3205;42.666;23.264;2022-10-22T06:03:39;41.20;;;25.20;;
6344;SDS011;3205;42.666;23.264;2022-10-22T06:06:08;44.27;;;23.07;;
6344;SDS011;3205;42.666;23.264;2022-10-22T06:08:43;42.53;;;23.83;;
6344;SDS011;3205;42.666;23.264;2022-10-22T06:11:10;48.27;;;25.53;;
6344;SDS011;3205;42.666;23.264;2022-10-22T06:13:38;45.93;;;23.33;;
6344;SDS011;3205;42.666;23.264;2022-10-22T06:16:05;43.00;;;23.17;;
6344;SDS011;3205;42.666;23.264;2022-10-22T06:18:32;45.70;;;23.00;;
6344;SDS011;3205;42.666;23.264;2022-10-22T06:21:02;41.43;;;22.50;;
6344;SDS011;3205;42.666;23.264;2022-10-22T06:23:30;49.73;;;23.57;;
6344;SDS011;3205;42.666;23.264;2022-10-22T06:25:57;47.20;;;23.67;;
6344;SDS011;3205;42.666;23.264;2022-10-22T06:28:24;47.37;;;24.27;;
6344;SDS011;3205;42.666;23.264;2022-10-22T06:30:52;45.00;;;22.43;;
6344;SDS011;3205;42.666;23.264;2022-10-22T06:33:19;41.70;;;21.60;;
6344;SDS011;3205;42.666;23.264;2022-10-22T06:35:46;39.10;;;21.48;;
6344;SDS011;3205;42.666;23.264;2022-10-22T06:38:13;35.17;;;21.10;;
6344;SDS011;3205;42.666;23.264;2022-10-22T06:40:40;53.22;;;22.98;;
6344;SDS011;3205;42.666;23.264;2022-10-22T06:43:07;34.03;;;21.08;;
6344;SDS011;3205;42.666;23.264;2022-10-22T06:45:34;57.30;;;20.83;;
6344;SDS011;3205;42.666;23.264;2022-10-22T06:48:03;39.50;;;21.38;;
6344;SDS011;3205;42.666;23.264;2022-10-22T06:50:30;37.15;;;20.92;;
6344;SDS011;3205;42.666;23.264;2022-10-22T06:52:58;33.55;;;19.38;;
6344;SDS011;3205;42.666;23.264;2022-10-22T06:55:25;32.65;;;21.35;;
6344;SDS011;3205;42.666;23.264;2022-10-22T06:57:53;34.83;;;21.60;;
6344;SDS011;3205;42.666;23.264;2022-10-22T07:00:21;32.97;;;20.67;;
6344;SDS011;3205;42.666;23.264;2022-10-22T07:02:49;28.45;;;20.52;;
6344;SDS011;3205;42.666;23.264;2022-10-22T07:05:19;31.42;;;21.77;;
6344;SDS011;3205;42.666;23.264;2022-10-22T07:07:46;33.50;;;21.38;;
6344;SDS011;3205;42.666;23.264;2022-10-22T07:10:14;30.02;;;20.92;;
6344;SDS011;3205;42.666;23.264;2022-10-22T07:12:41;33.47;;;22.17;;
6344;SDS011;3205;42.666;23.264;2022-10-22T07:15:08;31.33;;;22.15;;
6344;SDS011;3205;42.666;23.264;2022-10-22T07:17:35;33.03;;;22.05;;
6344;SDS011;3205;42.666;23.264;2022-10-22T07:20:02;28.00;;;22.00;;
6344;SDS011;3205;42.666;23.264;2022-10-22T07:22:31;32.88;;;22.20;;
6344;SDS011;3205;42.666;23.264;2022-10-22T07:24:58;24.92;;;20.10;;
6344;SDS011;3205;42.666;23.264;2022-10-22T07:27:25;38.28;;;19.58;;
6344;SDS011;3205;42.666;23.264;2022-10-22T07:29:51;27.15;;;18.50;;
6344;SDS011;3205;42.666;23.264;2022-10-22T07:32:18;26.85;;;18.88;;
6344;SDS011;3205;42.666;23.264;2022-10-22T07:34:45;27.85;;;19.63;;
6344;SDS011;3205;42.666;23.264;2022-10-22T07:37:12;28.58;;;18.80;;
6344;SDS011;3205;42.666;23.264;2022-10-22T07:39:40;29.85;;;18.73;;
6344;SDS011;3205;42.666;23.264;2022-10-22T07:42:07;34.33;;;18.85;;
6344;SDS011;3205;42.666;23.264;2022-10-22T07:44:34;33.80;;;19.67;;
6344;SDS011;3205;42.666;23.264;2022-10-22T07:47:01;23.27;;;17.25;;
6344;SDS011;3205;42.666;23.264;2022-10-22T07:49:28;23.13;;;16.27;;
6344;SDS011;3205;42.666;23.264;2022-10-22T07:51:55;25.75;;;18.48;;
6344;SDS011;3205;42.666;23.264;2022-10-22T07:54:22;22.45;;;17.23;;
6344;SDS011;3205;42.666;23.264;2022-10-22T07:56:50;21.83;;;17.38;;
6344;SDS011;3205;42.666;23.264;2022-10-22T07:59:17;30.75;;;18.33;;
6344;SDS011;3205;42.666;23.264;2022-10-22T08:01:44;23.05;;;18.02;;
6344;SDS011;3205;42.666;23.264;2022-10-22T08:04:11;22.00;;;18.73;;
6344;SDS011;3205;42.666;23.264;2022-10-22T08:06:38;31.17;;;20.02;;
6344;SDS011;3205;42.666;23.264;2022-10-22T08:09:05;25.42;;;18.98;;
6344;SDS011;3205;42.666;23.264;2022-10-22T08:11:32;22.98;;;20.25;;
6344;SDS011;3205;42.666;23.264;2022-10-22T08:14:00;27.65;;;20.38;;
6344;SDS011;3205;42.666;23.264;2022-10-22T08:16:27;31.02;;;21.67;;
6344;SDS011;3205;42.666;23.264;2022-10-22T08:18:54;34.67;;;22.15;;
6344;SDS011;3205;42.666;23.264;2022-10-22T08:21:21;33.97;;;22.48;;
6344;SDS011;3205;42.666;23.264;2022-10-22T08:23:48;29.95;;;21.85;;
6344;SDS011;3205;42.666;23.264;2022-10-22T08:26:15;32.10;;;23.23;;
6344;SDS011;3205;42.666;23.264;2022-10-22T08:28:42;29.58;;;18.70;;
6344;SDS011;3205;42.666;23.264;2022-10-22T08:31:10;28.77;;;19.20;;
6344;SDS011;3205;42.666;23.264;2022-10-22T08:33:37;26.52;;;17.98;;
6344;SDS011;3205;42.666;23.264;2022-10-22T08:36:05;21.10;;;16.73;;
6344;SDS011;3205;42.666;23.264;2022-10-22T08:38:32;28.27;;;19.33;;
6344;SDS011;3205;42.666;23.264;2022-10-22T08:41:02;32.42;;;20.30;;
6344;SDS011;3205;42.666;23.264;2022-10-22T08:46:40;28.88;;;20.05;;
6344;SDS011;3205;42.666;23.264;2022-10-22T08:49:24;24.38;;;20.10;;
6344;SDS011;3205;42.666;23.264;2022-10-22T08:51:53;28.95;;;18.48;;
6344;SDS011;3205;42.666;23.264;2022-10-22T08:54:24;32.10;;;18.70;;
6344;SDS011;3205;42.666;23.264;2022-10-22T08:57:08;30.23;;;19.63;;
6344;SDS011;3205;42.666;23.264;2022-10-22T08:59:45;23.90;;;19.08;;
6344;SDS011;3205;42.666;23.264;2022-10-22T09:02:28;26.98;;;18.77;;
6344;SDS011;3205;42.666;23.264;2022-10-22T09:05:04;30.77;;;18.95;;
6344;SDS011;3205;42.666;23.264;2022-10-22T09:07:41;23.20;;;18.58;;
6344;SDS011;3205;42.666;23.264;2022-10-22T09:10:14;23.23;;;17.90;;
6344;SDS011;3205;42.666;23.264;2022-10-22T09:12:41;26.33;;;19.17;;
6344;SDS011;3205;42.666;23.264;2022-10-22T09:15:11;27.45;;;18.75;;
6344;SDS011;3205;42.666;23.264;2022-10-22T09:17:44;30.88;;;18.90;;
6344;SDS011;3205;42.666;23.264;2022-10-22T09:20:22;29.83;;;19.60;;
6344;SDS011;3205;42.666;23.264;2022-10-22T09:22:54;30.02;;;19.40;;
6344;SDS011;3205;42.666;23.264;2022-10-22T09:25:34;23.67;;;19.08;;
6344;SDS011;3205;42.666;23.264;2022-10-22T09:28:02;25.92;;;19.98;;
6344;SDS011;3205;42.666;23.264;2022-10-22T09:30:30;29.08;;;19.63;;
6344;SDS011;3205;42.666;23.264;2022-10-22T09:33:01;26.33;;;19.00;;
6344;SDS011;3205;42.666;23.264;2022-10-22T09:35:43;26.10;;;20.17;;
6344;SDS011;3205;42.666;23.264;2022-10-22T09:38:12;40.22;;;21.00;;
6344;SDS011;3205;42.666;23.264;2022-10-22T09:40:42;27.58;;;20.63;;
6344;SDS011;3205;42.666;23.264;2022-10-22T09:43:11;28.00;;;20.70;;
6344;SDS011;3205;42.666;23.264;2022-10-22T09:45:39;32.22;;;19.17;;
6344;SDS011;3205;42.666;23.264;2022-10-22T09:48:14;25.05;;;18.95;;
6344;SDS011;3205;42.666;23.264;2022-10-22T09:50:46;27.30;;;18.48;;
6344;SDS011;3205;42.666;23.264;2022-10-22T09:53:17;31.40;;;20.40;;
6344;SDS011;3205;42.666;23.264;2022-10-22T09:55:48;28.50;;;19.75;;
6344;SDS011;3205;42.666;23.264;2022-10-22T09:58:17;29.55;;;18.50;;
6344;SDS011;3205;42.666;23.264;2022-10-22T10:00:46;33.00;;;21.13;;
6344;SDS011;3205;42.666;23.264;2022-10-22T10:03:18;33.97;;;21.50;;
6344;SDS011;3205;42.666;23.264;2022-10-22T10:05:48;32.65;;;20.77;;
6344;SDS011;3205;42.666;23.264;2022-10-22T10:08:18;34.55;;;21.30;;
6344;SDS011;3205;42.666;23.264;2022-10-22T10:10:45;37.15;;;21.75;;
6344;SDS011;3205;42.666;23.264;2022-10-22T10:16:06;30.48;;;21.70;;
6344;SDS011;3205;42.666;23.264;2022-10-22T10:18:46;31.52;;;22.15;;
6344;SDS011;3205;42.666;23.264;2022-10-22T10:21:25;30.98;;;21.10;;
6344;SDS011;3205;42.666;23.264;2022-10-22T10:24:02;32.17;;;22.10;;
6344;SDS011;3205;42.666;23.264;2022-10-22T10:26:36;35.22;;;22.52;;
6344;SDS011;3205;42.666;23.264;2022-10-22T10:29:12;35.70;;;20.92;;
6344;SDS011;3205;42.666;23.264;2022-10-22T10:34:47;37.45;;;20.73;;
6344;SDS011;3205;42.666;23.264;2022-10-22T10:37:23;41.63;;;23.23;;
6344;SDS011;3205;42.666;23.264;2022-10-22T10:39:56;36.00;;;21.75;;
6344;SDS011;3205;42.666;23.264;2022-10-22T10:42:35;40.92;;;23.52;;
6344;SDS011;3205;42.666;23.264;2022-10-22T10:45:10;39.97;;;21.08;;
6344;SDS011;3205;42.666;23.264;2022-10-22T10:50:36;36.10;;;22.25;;
6344;SDS011;3205;42.666;23.264;2022-10-22T10:53:13;30.65;;;20.50;;
6344;SDS011;3205;42.666;23.264;2022-10-22T10:55:51;34.72;;;19.77;;
6344;SDS011;3205;42.666;23.264;2022-10-22T10:58:27;35.35;;;18.98;;
6344;SDS011;3205;42.666;23.264;2022-10-22T11:01:02;33.35;;;19.48;;
6344;SDS011;3205;42.666;23.264;2022-10-22T11:03:47;35.15;;;17.80;;
6344;SDS011;3205;42.666;23.264;2022-10-22T11:06:28;28.95;;;18.75;;
6344;SDS011;3205;42.666;23.264;2022-10-22T11:09:00;32.08;;;19.00;;
6344;SDS011;3205;42.666;23.264;2022-10-22T11:11:31;33.00;;;18.73;;
6344;SDS011;3205;42.666;23.264;2022-10-22T11:14:04;31.95;;;18.73;;
6344;SDS011;3205;42.666;23.264;2022-10-22T11:16:37;34.70;;;19.52;;
6344;SDS011;3205;42.666;23.264;2022-10-22T11:19:10;32.30;;;19.55;;
6344;SDS011;3205;42.666;23.264;2022-10-22T11:21:44;29.83;;;18.58;;
6344;SDS011;3205;42.666;23.264;2022-10-22T11:24:18;26.95;;;17.50;;
6344;SDS011;3205;42.666;23.264;2022-10-22T11:26:50;31.88;;;19.02;;
6344;SDS011;3205;42.666;23.264;2022-10-22T11:29:23;34.65;;;18.02;;
6344;SDS011;3205;42.666;23.264;2022-10-22T11:31:52;23.08;;;17.67;;
6344;SDS011;3205;42.666;23.264;2022-10-22T11:34:21;35.42;;;17.45;;
6344;SDS011;3205;42.666;23.264;2022-10-22T11:36:55;28.35;;;17.83;;
6344;SDS011;3205;42.666;23.264;2022-10-22T11:39:30;25.80;;;15.25;;
6344;SDS011;3205;42.666;23.264;2022-10-22T11:42:02;29.23;;;16.83;;
6344;SDS011;3205;42.666;23.264;2022-10-22T11:44:33;28.67;;;16.75;;
6344;SDS011;3205;42.666;23.264;2022-10-22T11:47:15;31.88;;;16.20;;
6344;SDS011;3205;42.666;23.264;2022-10-22T11:49:46;32.13;;;17.40;;
6344;SDS011;3205;42.666;23.264;2022-10-22T11:52:24;28.92;;;17.23;;
6344;SDS011;3205;42.666;23.264;2022-10-22T11:55:02;25.15;;;16.38;;
6344;SDS011;3205;42.666;23.264;2022-10-22T11:57:55;25.48;;;15.25;;
6344;SDS011;3205;42.666;23.264;2022-10-22T12:00:31;32.88;;;16.00;;
6344;SDS011;3205;42.666;23.264;2022-10-22T12:03:01;34.47;;;15.85;;
6344;SDS011;3205;42.666;23.264;2022-10-22T12:05:32;28.80;;;14.60;;
6344;SDS011;3205;42.666;23.264;2022-10-22T12:08:13;25.80;;;14.82;;
6344;SDS011;3205;42.666;23.264;2022-10-22T12:16:46;24.45;;;13.85;;
6344;SDS011;3205;42.666;23.264;2022-10-22T12:19:20;25.23;;;14.63;;
6344;SDS011;3205;42.666;23.264;2022-10-22T12:21:52;26.20;;;14.20;;
6344;SDS011;3205;42.666;23.264;2022-10-22T12:24:22;24.85;;;14.00;;
6344;SDS011;3205;42.666;23.264;2022-10-22T12:26:51;23.77;;;13.68;;
6344;SDS011;3205;42.666;23.264;2022-10-22T12:29:18;27.65;;;13.82;;
6344;SDS011;3205;42.666;23.264;2022-10-22T12:31:47;27.60;;;14.02;;
6344;SDS011;3205;42.666;23.264;2022-10-22T12:34:16;23.45;;;14.20;;
6344;SDS011;3205;42.666;23.264;2022-10-22T12:36:45;23.23;;;13.60;;
6344;SDS011;3205;42.666;23.264;2022-10-22T12:39:13;21.20;;;12.25;;
6344;SDS011;3205;42.666;23.264;2022-10-22T12:41:42;20.33;;;13.23;;
6344;SDS011;3205;42.666;23.264;2022-10-22T12:44:10;27.65;;;13.55;;
6344;SDS011;3205;42.666;23.264;2022-10-22T12:46:38;22.70;;;12.40;;
6344;SDS011;3205;42.666;23.264;2022-10-22T12:49:07;24.08;;;14.48;;
6344;SDS011;3205;42.666;23.264;2022-10-22T12:51:39;21.75;;;12.45;;
6344;SDS011;3205;42.666;23.264;2022-10-22T12:54:07;16.92;;;11.38;;
6344;SDS011;3205;42.666;23.264;2022-10-22T12:56:39;19.73;;;11.05;;
6344;SDS011;3205;42.666;23.264;2022-10-22T12:59:11;15.05;;;10.60;;
6344;SDS011;3205;42.666;23.264;2022-10-22T13:01:43;17.42;;;11.18;;
6344;SDS011;3205;42.666;23.264;2022-10-22T13:04:17;21.38;;;11.98;;
6344;SDS011;3205;42.666;23.264;2022-10-22T13:06:47;23.98;;;11.25;;
6344;SDS011;3205;42.666;23.264;2022-10-22T13:09:16;20.40;;;11.60;;
6344;SDS011;3205;42.666;23.264;2022-10-22T13:11:49;18.88;;;11.18;;
6344;SDS011;3205;42.666;23.264;2022-10-22T13:14:19;17.92;;;10.77;;
6344;SDS011;3205;42.666;23.264;2022-10-22T13:17:04;17.58;;;11.00;;
6344;SDS011;3205;42.666;23.264;2022-10-22T13:19:35;16.42;;;11.30;;
6344;SDS011;3205;42.666;23.264;2022-10-22T13:22:23;22.35;;;11.05;;
6344;SDS011;3205;42.666;23.264;2022-10-22T13:24:56;20.90;;;10.82;;
6344;SDS011;3205;42.666;23.264;2022-10-22T13:27:24;21.95;;;11.93;;
6344;SDS011;3205;42.666;23.264;2022-10-22T13:29:53;24.75;;;10.98;;
6344;SDS011;3205;42.666;23.264;2022-10-22T13:32:28;16.15;;;10.38;;
6344;SDS011;3205;42.666;23.264;2022-10-22T13:34:58;17.40;;;10.77;;
6344;SDS011;3205;42.666;23.264;2022-10-22T13:37:27;17.77;;;10.27;;
6344;SDS011;3205;42.666;23.264;2022-10-22T13:39:55;18.40;;;10.20;;
6344;SDS011;3205;42.666;23.264;2022-10-22T13:42:22;21.63;;;11.05;;
6344;SDS011;3205;42.666;23.264;2022-10-22T13:44:49;23.23;;;12.20;;
6344;SDS011;3205;42.666;23.264;2022-10-22T13:47:21;23.10;;;10.93;;
6344;SDS011;3205;42.666;23.264;2022-10-22T13:49:51;20.42;;;11.23;;
6344;SDS011;3205;42.666;23.264;2022-10-22T13:52:28;17.05;;;10.30;;
6344;SDS011;3205;42.666;23.264;2022-10-22T13:54:59;18.85;;;10.50;;
6344;SDS011;3205;42.666;23.264;2022-10-22T13:57:26;17.55;;;10.57;;
6344;SDS011;3205;42.666;23.264;2022-10-22T13:59:52;18.90;;;11.10;;
6344;SDS011;3205;42.666;23.264;2022-10-22T14:02:21;23.25;;;11.00;;
6344;SDS011;3205;42.666;23.264;2022-10-22T14:04:49;19.63;;;10.57;;
6344;SDS011;3205;42.666;23.264;2022-10-22T14:07:17;17.83;;;10.07;;
6344;SDS011;3205;42.666;23.264;2022-10-22T14:09:44;21.20;;;10.68;;
6344;SDS011;3205;42.666;23.264;2022-10-22T14:12:11;23.50;;;10.57;;
6344;SDS011;3205;42.666;23.264;2022-10-22T14:14:40;17.73;;;10.77;;
6344;SDS011;3205;42.666;23.264;2022-10-22T14:17:11;24.02;;;10.85;;
6344;SDS011;3205;42.666;23.264;2022-10-22T14:19:42;16.90;;;10.60;;
6344;SDS011;3205;42.666;23.264;2022-10-22T14:22:14;22.00;;;10.68;;
6344;SDS011;3205;42.666;23.264;2022-10-22T14:24:41;16.90;;;10.60;;
6344;SDS011;3205;42.666;23.264;2022-10-22T14:27:12;23.23;;;12.18;;
6344;SDS011;3205;42.666;23.264;2022-10-22T14:29:40;42.17;;;16.65;;
6344;SDS011;3205;42.666;23.264;2022-10-22T14:32:11;29.33;;;12.48;;
6344;SDS011;3205;42.666;23.264;2022-10-22T14:34:39;25.65;;;12.23;;
6344;SDS011;3205;42.666;23.264;2022-10-22T14:37:12;32.40;;;13.73;;
6344;SDS011;3205;42.666;23.264;2022-10-22T14:39:42;32.92;;;12.85;;
6344;SDS011;3205;42.666;23.264;2022-10-22T14:42:11;23.73;;;12.43;;
6344;SDS011;3205;42.666;23.264;2022-10-22T14:44:38;26.77;;;12.90;;
6344;SDS011;3205;42.666;23.264;2022-10-22T14:47:05;23.50;;;13.52;;
6344;SDS011;3205;42.666;23.264;2022-10-22T14:49:32;27.60;;;13.00;;
6344;SDS011;3205;42.666;23.264;2022-10-22T14:51:58;27.77;;;13.75;;
6344;SDS011;3205;42.666;23.264;2022-10-22T14:54:27;34.50;;;14.70;;
6344;SDS011;3205;42.666;23.264;2022-10-22T14:56:54;23.67;;;13.88;;
6344;SDS011;3205;42.666;23.264;2022-10-22T14:59:21;26.17;;;14.75;;
6344;SDS011;3205;42.666;23.264;2022-10-22T15:01:48;24.70;;;14.45;;
6344;SDS011;3205;42.666;23.264;2022-10-22T15:04:15;32.47;;;14.80;;
6344;SDS011;3205;42.666;23.264;2022-10-22T15:06:42;29.63;;;18.38;;